Time;durP1;ratioP1;P1;durP2;ratioP2;P2;SDS_P1;SDS_P2;PMS_P1;PMS_P2;Temp;Humidity;BMP_temperature;BMP_pressure;BME280_temperature;BME280_humidity;BME280_pressure;Samples;Min_cycle;Max_cycle;Signal;HPM_P1;HPM_P2
2023/11/06 00:00:11;;;;;;;13.47;2.27;;;;;;;9.83;100.00;99839.47;4997814;28;20435;-69
2023/11/06 00:02:37;;;;;;;9.90;2.73;;;;;;;9.80;100.00;99847.94;4976738;28;22277;-68
2023/11/06 00:05:04;;;;;;;8.50;2.27;;;;;;;9.56;100.00;99809.41;4995817;28;20469;-69
2023/11/06 00:07:30;;;;;;;14.07;2.07;;;;;;;9.63;100.00;99850.31;4984372;28;20196;-69
2023/11/06 00:09:55;;;;;;;10.57;2.30;;;;;;;9.66;100.00;99860.59;4994593;28;20432;-68
2023/11/06 00:12:25;;;;;;;7.20;1.80;;;;;;;9.47;100.00;99843.66;4978193;28;21060;-68
2023/11/06 00:14:51;;;;;;;12.13;2.60;;;;;;;9.67;100.00;99868.44;4996012;28;20654;-69
2023/11/06 00:17:17;;;;;;;16.57;1.93;;;;;;;9.34;100.00;99799.03;4995098;28;20464;-69
2023/11/06 00:19:43;;;;;;;7.80;1.77;;;;;;;9.45;100.00;99851.06;4982690;28;20436;-69
2023/11/06 00:22:09;;;;;;;9.97;1.83;;;;;;;9.44;100.00;99849.44;4994126;28;20207;-68
2023/11/06 00:24:34;;;;;;;7.80;1.97;;;;;;;9.42;100.00;99841.59;4997332;28;20507;-69
2023/11/06 00:27:00;;;;;;;7.70;1.67;;;;;;;9.31;100.00;99860.22;4989229;28;20193;-69
2023/11/06 00:29:28;;;;;;;18.27;2.30;;;;;;;9.27;100.00;99851.78;5008860;28;20236;-69
2023/11/06 00:31:53;;;;;;;8.73;1.50;;;;;;;9.31;100.00;99877.09;5000987;28;20212;-69
2023/11/06 00:34:19;;;;;;;6.33;1.60;;;;;;;9.47;100.00;99873.09;4981738;28;20455;-68
2023/11/06 00:36:44;;;;;;;7.40;1.60;;;;;;;9.53;100.00;99876.78;4985169;28;20678;-68
2023/11/06 00:39:12;;;;;;;7.20;1.43;;;;;;;9.49;100.00;99913.88;4979751;28;20185;-68
2023/11/06 00:41:39;;;;;;;7.43;2.13;;;;;;;9.20;100.00;99917.88;4982605;28;20459;-68
2023/11/06 00:44:05;;;;;;;6.77;1.80;;;;;;;9.35;100.00;99913.09;4996079;28;20455;-68
2023/11/06 00:46:30;;;;;;;9.67;2.00;;;;;;;9.34;100.00;99934.72;4995767;28;20467;-69
2023/11/06 00:48:56;;;;;;;12.30;2.13;;;;;;;9.05;100.00;99921.66;4992799;28;20607;-68
2023/11/06 00:51:22;;;;;;;7.50;2.23;;;;;;;9.19;100.00;99961.72;5000675;28;20266;-69
2023/11/06 00:53:47;;;;;;;8.60;2.33;;;;;;;9.27;100.00;99969.53;4974043;28;20212;-68
2023/11/06 00:56:13;;;;;;;6.87;1.70;;;;;;;9.14;100.00;99978.44;4997220;28;20256;-69
2023/11/06 00:58:38;;;;;;;14.87;2.70;;;;;;;8.92;100.00;99974.38;4983738;28;20276;-68
2023/11/06 01:01:04;;;;;;;12.47;2.40;;;;;;;8.49;100.00;99932.06;4997622;28;20204;-69
2023/11/06 01:03:31;;;;;;;10.70;2.63;;;;;;;8.98;100.00;100002.94;5000365;28;20604;-69
2023/11/06 01:05:58;;;;;;;13.70;2.60;;;;;;;8.87;100.00;100023.13;4984328;28;20483;-68
2023/11/06 01:08:23;;;;;;;9.67;2.10;;;;;;;8.92;100.00;100001.94;4999049;28;20458;-68
2023/11/06 01:10:49;;;;;;;14.13;3.40;;;;;;;8.96;100.00;100023.72;4996511;28;20464;-69
2023/11/06 01:13:14;;;;;;;14.57;2.80;;;;;;;8.89;100.00;100029.09;5000237;28;20268;-68
2023/11/06 01:15:44;;;;;;;6.60;2.27;;;;;;;8.91;100.00;100039.56;4988408;28;20185;-67
2023/11/06 01:18:11;;;;;;;11.30;2.33;;;;;;;8.87;100.00;100011.59;5001614;28;20188;-68
2023/11/06 01:20:37;;;;;;;7.80;2.30;;;;;;;9.14;100.00;100050.69;4986243;28;20542;-69
2023/11/06 01:23:02;;;;;;;10.33;2.37;;;;;;;8.92;100.00;100051.94;4992900;28;20580;-69
2023/11/06 01:25:28;;;;;;;9.63;2.93;;;;;;;8.79;100.00;100069.63;5000758;28;20301;-69
2023/11/06 01:27:54;;;;;;;9.57;2.30;;;;;;;8.70;100.00;100054.81;4997138;28;20190;-69
2023/11/06 01:30:19;;;;;;;7.63;2.30;;;;;;;8.83;100.00;100068.19;4999292;28;20217;-69
2023/11/06 01:32:49;;;;;;;11.03;1.90;;;;;;;8.85;100.00;100094.69;4990321;28;20192;-68
2023/11/06 01:35:18;;;;;;;13.17;2.60;;;;;;;8.72;100.00;100070.66;4998793;28;20192;-69
2023/11/06 01:37:44;;;;;;;11.07;2.23;;;;;;;8.94;100.00;100072.09;4999854;28;20439;-69
2023/11/06 01:40:11;;;;;;;15.53;2.50;;;;;;;8.78;100.00;100089.38;4982904;28;20436;-68
2023/11/06 01:42:37;;;;;;;9.93;2.67;;;;;;;8.42;100.00;100062.19;4998817;28;20188;-68
2023/11/06 01:45:05;;;;;;;7.83;2.77;;;;;;;8.91;100.00;100117.13;4998672;28;20460;-69
2023/11/06 01:47:32;;;;;;;9.57;2.43;;;;;;;8.67;100.00;100083.81;4993161;28;20533;-68
2023/11/06 01:49:58;;;;;;;8.57;2.40;;;;;;;8.68;100.00;100118.38;4998935;28;20467;-69
2023/11/06 01:52:24;;;;;;;9.00;2.63;;;;;;;8.85;100.00;100093.88;4982431;28;20973;-69
2023/11/06 01:54:49;;;;;;;8.17;2.87;;;;;;;8.90;100.00;100099.44;4999269;28;20243;-69
2023/11/06 01:57:17;;;;;;;8.67;2.23;;;;;;;8.81;100.00;100096.97;5001846;28;20850;-69
2023/11/06 01:59:43;;;;;;;10.30;2.53;;;;;;;8.88;100.00;100107.69;4999987;28;20197;-69
2023/11/06 02:02:09;;;;;;;10.83;2.83;;;;;;;8.69;100.00;100105.81;4992257;28;20990;-69
2023/11/06 02:04:35;;;;;;;6.03;2.17;;;;;;;8.58;100.00;100097.38;4998235;28;20480;-70
2023/11/06 02:07:01;;;;;;;9.73;2.23;;;;;;;8.09;100.00;99972.09;4999728;28;20197;-69
2023/11/06 02:09:29;;;;;;;9.53;2.10;;;;;;;8.92;100.00;100102.75;4984194;28;20190;-69
2023/11/06 02:11:57;;;;;;;4.53;1.73;;;;;;;9.04;100.00;100112.59;4966724;28;20205;-69
2023/11/06 02:14:23;;;;;;;11.83;2.53;;;;;;;8.82;100.00;100125.38;4978175;28;20510;-69
2023/11/06 02:16:51;;;;;;;6.07;1.87;;;;;;;8.73;100.00;100121.22;4998689;28;21033;-70
2023/11/06 02:19:17;;;;;;;6.80;2.20;;;;;;;8.66;100.00;100131.09;4984911;28;20196;-69
2023/11/06 02:21:45;;;;;;;7.43;2.10;;;;;;;8.62;100.00;100111.16;4982115;28;20463;-69
2023/11/06 02:24:11;;;;;;;7.50;2.10;;;;;;;8.77;100.00;100119.00;4996823;28;20228;-70
2023/11/06 02:26:36;;;;;;;10.47;1.80;;;;;;;8.67;100.00;100129.25;4986019;28;20471;-69
2023/11/06 02:29:02;;;;;;;9.40;2.00;;;;;;;8.54;100.00;100130.06;4991804;28;20193;-69
2023/11/06 02:31:29;;;;;;;15.80;2.30;;;;;;;8.54;100.00;100127.41;4998722;28;20208;-69
2023/11/06 02:33:59;;;;;;;6.43;1.97;;;;;;;8.61;100.00;100154.94;4999714;28;20436;-69
2023/11/06 02:36:24;;;;;;;8.37;1.97;;;;;;;8.54;100.00;100152.28;4998627;28;20439;-69
2023/11/06 02:38:49;;;;;;;11.63;2.47;;;;;;;8.51;100.00;100150.00;4994864;28;20462;-69
2023/11/06 02:41:15;;;;;;;7.50;1.63;;;;;;;8.77;100.00;100151.91;4996595;28;20921;-69
2023/11/06 02:43:40;;;;;;;7.83;2.10;;;;;;;8.67;100.00;100164.00;4996065;28;20199;-69
2023/11/06 02:46:06;;;;;;;6.93;2.00;;;;;;;8.68;100.00;100161.16;5001847;28;20205;-69
2023/11/06 02:48:31;;;;;;;6.70;1.97;;;;;;;8.61;100.00;100173.66;5003025;28;20247;-69
2023/11/06 02:50:57;;;;;;;8.23;1.60;;;;;;;8.37;100.00;100138.41;4988528;28;20249;-69
2023/11/06 02:53:22;;;;;;;9.73;2.33;;;;;;;8.68;100.00;100182.53;4996076;28;20193;-69
2023/11/06 02:55:48;;;;;;;9.33;1.90;;;;;;;8.54;100.00;100178.19;4997444;28;20235;-69
2023/11/06 02:58:13;;;;;;;7.97;1.93;;;;;;;8.53;100.00;100181.84;4982584;28;20655;-69
2023/11/06 03:00:39;;;;;;;7.50;2.40;;;;;;;8.45;100.00;100156.16;4999184;28;20204;-69
2023/11/06 03:03:05;;;;;;;6.63;2.30;;;;;;;8.50;100.00;100163.56;4995193;28;20690;-69
2023/11/06 03:05:31;;;;;;;6.90;2.60;;;;;;;8.45;100.00;100148.16;4983739;28;20460;-68
2023/11/06 03:07:56;;;;;;;7.33;2.40;;;;;;;8.46;100.00;100138.28;5002573;28;20193;-69
2023/11/06 03:10:22;;;;;;;7.63;2.53;;;;;;;8.71;100.00;100144.69;5002431;28;21094;-69
2023/11/06 03:12:48;;;;;;;8.30;2.60;;;;;;;8.59;100.00;100133.78;5002680;28;20725;-69
2023/11/06 03:15:13;;;;;;;6.00;3.10;;;;;;;8.32;100.00;100074.06;5002804;28;20190;-69
2023/11/06 03:17:38;;;;;;;10.30;4.50;;;;;;;8.74;100.00;100112.22;5001197;28;20193;-69
2023/11/06 03:20:10;;;;;;;7.53;3.07;;;;;;;8.37;100.00;100042.22;5002768;28;20181;-69
2023/11/06 03:22:37;;;;;;;10.73;3.90;;;;;;;8.52;100.00;100092.84;4994121;28;20559;-69
2023/11/06 03:25:04;;;;;;;10.03;4.10;;;;;;;8.69;100.00;100125.34;4989171;28;20464;-69
2023/11/06 03:27:30;;;;;;;10.80;4.10;;;;;;;8.45;100.00;100099.22;4994969;28;20440;-69
2023/11/06 03:29:55;;;;;;;9.83;4.30;;;;;;;8.72;100.00;100145.53;4998984;28;21165;-70
2023/11/06 03:32:20;;;;;;;9.03;4.40;;;;;;;8.73;100.00;100150.66;5000683;28;20213;-69
2023/11/06 03:34:46;;;;;;;11.73;5.53;;;;;;;8.57;100.00;100154.53;5002700;28;20558;-69
2023/11/06 03:37:12;;;;;;;13.90;5.03;;;;;;;8.70;100.00;100167.09;4981925;28;20181;-69
2023/11/06 03:39:38;;;;;;;10.20;5.60;;;;;;;8.64;100.00;100170.59;5001271;28;20492;-69
2023/11/06 03:42:03;;;;;;;12.13;5.87;;;;;;;8.62;100.00;100169.97;4985591;28;20201;-68
2023/11/06 03:44:29;;;;;;;12.03;5.70;;;;;;;8.57;100.00;100178.59;4999199;28;20200;-69
2023/11/06 03:46:54;;;;;;;10.07;4.83;;;;;;;8.75;100.00;100185.22;4995552;28;20339;-69
2023/11/06 03:49:21;;;;;;;10.87;4.60;;;;;;;8.31;100.00;100141.06;5007755;28;20189;-69
2023/11/06 03:51:46;;;;;;;9.10;4.83;;;;;;;8.75;100.00;100204.75;4983955;28;20259;-69
2023/11/06 03:54:12;;;;;;;8.07;4.37;;;;;;;8.79;100.00;100218.53;5002845;28;20423;-69
2023/11/06 03:56:37;;;;;;;13.63;5.67;;;;;;;8.78;100.00;100225.75;4997920;28;20783;-69
2023/11/06 03:59:03;;;;;;;13.03;5.43;;;;;;;8.68;100.00;100235.16;4998006;28;20199;-69
2023/11/06 04:01:33;;;;;;;11.77;5.00;;;;;;;8.73;100.00;100233.53;4999096;28;21008;-69
2023/11/06 04:04:00;;;;;;;11.17;4.63;;;;;;;8.67;100.00;100244.22;5002565;28;20192;-70
2023/11/06 04:06:26;;;;;;;14.07;4.93;;;;;;;8.72;100.00;100244.44;5001623;28;20471;-69
2023/11/06 04:08:51;;;;;;;10.20;4.10;;;;;;;8.03;100.00;100125.97;5000964;28;20455;-69
2023/11/06 04:11:17;;;;;;;7.90;3.57;;;;;;;8.51;100.00;100219.50;4989086;28;20232;-69
2023/11/06 04:13:43;;;;;;;11.27;3.60;;;;;;;8.60;100.00;100246.88;4981940;28;20181;-70
2023/11/06 04:16:08;;;;;;;8.40;3.07;;;;;;;8.71;100.00;100261.53;4984033;28;20276;-69
2023/11/06 04:18:34;;;;;;;8.83;2.97;;;;;;;8.82;100.00;100259.09;4992942;28;20185;-69
2023/11/06 04:21:00;;;;;;;5.87;2.43;;;;;;;8.71;100.00;100256.19;4978088;28;20233;-69
2023/11/06 04:23:26;;;;;;;9.50;3.27;;;;;;;8.42;100.00;100241.22;4997849;28;20615;-69
2023/11/06 04:25:51;;;;;;;8.10;2.80;;;;;;;8.51;100.00;100259.59;5001689;28;20501;-69
2023/11/06 04:28:17;;;;;;;6.53;2.70;;;;;;;8.74;100.00;100255.78;4998361;28;20213;-70
2023/11/06 04:30:43;;;;;;;9.10;3.30;;;;;;;8.40;100.00;100219.25;4982302;28;20254;-69
2023/11/06 04:33:09;;;;;;;6.03;2.47;;;;;;;8.61;100.00;100272.56;4998188;28;20186;-69
2023/11/06 04:35:35;;;;;;;7.37;2.60;;;;;;;8.75;100.00;100258.22;4987663;28;20501;-69
2023/11/06 04:38:00;;;;;;;7.30;2.60;;;;;;;8.81;100.00;100300.22;5002403;28;20440;-69
2023/11/06 04:40:28;;;;;;;7.27;2.33;;;;;;;8.87;100.00;100306.59;4997520;28;20216;-70
2023/11/06 04:42:54;;;;;;;8.23;3.23;;;;;;;8.70;100.00;100286.59;5003627;28;20823;-69
2023/11/06 04:45:20;;;;;;;5.70;2.30;;;;;;;8.63;100.00;100275.06;5002294;28;20471;-69
2023/11/06 04:47:45;;;;;;;10.70;2.90;;;;;;;8.89;100.00;100315.25;5000000;28;20213;-69
2023/11/06 04:50:12;;;;;;;9.83;3.10;;;;;;;8.89;100.00;100307.25;4998716;28;20711;-69
2023/11/06 04:52:38;;;;;;;8.53;2.77;;;;;;;8.74;100.00;100302.06;4983448;28;20181;-68
2023/11/06 04:55:05;;;;;;;11.53;2.80;;;;;;;8.79;100.00;100329.03;4998835;28;20447;-69
2023/11/06 04:57:31;;;;;;;9.30;2.87;;;;;;;8.82;100.00;100333.97;4996907;28;20907;-69
2023/11/06 04:59:57;;;;;;;12.30;3.87;;;;;;;8.81;100.00;100310.91;4999812;28;20526;-69
2023/11/06 05:02:23;;;;;;;7.17;3.30;;;;;;;8.80;100.00;100346.72;4998629;28;20212;-69
2023/11/06 05:04:49;;;;;;;8.53;3.40;;;;;;;8.78;100.00;100331.88;4998592;28;20832;-69
2023/11/06 05:07:14;;;;;;;9.87;4.30;;;;;;;8.84;100.00;100315.03;5000740;28;20478;-69
2023/11/06 05:09:39;;;;;;;11.43;4.37;;;;;;;9.01;100.00;100289.56;4986389;28;20174;-69
2023/11/06 05:12:06;;;;;;;9.57;4.90;;;;;;;8.99;100.00;100293.47;4994008;28;20304;-69
2023/11/06 05:14:31;;;;;;;9.80;5.57;;;;;;;8.99;100.00;100269.41;4997244;28;20279;-69
2023/11/06 05:16:56;;;;;;;11.13;6.53;;;;;;;8.89;100.00;100264.44;5000978;28;21323;-69
2023/11/06 05:19:22;;;;;;;11.10;5.10;;;;;;;8.91;100.00;100253.53;4997094;28;20185;-69
2023/11/06 05:21:47;;;;;;;11.53;6.10;;;;;;;9.00;100.00;100265.72;4989168;28;20213;-69
2023/11/06 05:24:13;;;;;;;8.67;4.70;;;;;;;8.33;100.00;100123.81;4998220;28;20200;-69
2023/11/06 05:26:39;;;;;;;11.80;5.47;;;;;;;8.97;100.00;100248.22;4981085;28;20292;-69
2023/11/06 05:29:05;;;;;;;8.93;5.73;;;;;;;8.98;100.00;100252.53;5000832;28;20443;-69
2023/11/06 05:31:30;;;;;;;13.90;6.70;;;;;;;8.65;100.00;100223.03;4984984;28;20357;-69
2023/11/06 05:33:58;;;;;;;13.57;7.60;;;;;;;8.94;100.00;100277.19;4986153;28;20184;-69
2023/11/06 05:36:24;;;;;;;13.80;6.60;;;;;;;9.04;100.00;100293.69;4997070;28;20181;-69
2023/11/06 05:38:50;;;;;;;15.17;6.80;;;;;;;8.88;100.00;100305.59;4997321;28;21706;-69
2023/11/06 05:41:16;;;;;;;17.23;6.53;;;;;;;8.93;100.00;100307.66;5000733;28;20460;-69
2023/11/06 05:43:41;;;;;;;12.93;6.10;;;;;;;8.79;100.00;100304.97;4979861;28;20197;-69
2023/11/06 05:46:07;;;;;;;10.47;5.47;;;;;;;8.85;100.00;100332.72;4998721;28;20210;-69
2023/11/06 05:48:35;;;;;;;10.97;5.53;;;;;;;8.68;100.00;100324.25;4998148;28;20201;-69
2023/11/06 05:51:02;;;;;;;11.03;5.27;;;;;;;8.98;100.00;100380.09;4998564;28;20209;-69
2023/11/06 05:53:28;;;;;;;10.83;6.23;;;;;;;8.86;100.00;100398.56;4979035;28;20876;-69
2023/11/06 05:55:53;;;;;;;13.47;5.77;;;;;;;8.82;100.00;100413.34;4998622;28;20490;-69
2023/11/06 05:58:19;;;;;;;9.60;5.73;;;;;;;8.73;100.00;100395.81;4999616;28;20494;-69
2023/11/06 06:00:45;;;;;;;10.93;5.63;;;;;;;8.90;100.00;100426.56;4997095;28;20467;-69
2023/11/06 06:03:12;;;;;;;9.47;5.20;;;;;;;8.89;100.00;100432.94;4996829;28;20203;-69
2023/11/06 06:05:38;;;;;;;15.40;6.33;;;;;;;8.41;100.00;100363.34;4998248;28;20459;-69
2023/11/06 06:08:03;;;;;;;15.60;6.40;;;;;;;8.94;100.00;100451.06;4985800;28;20470;-69
2023/11/06 06:10:29;;;;;;;11.60;5.90;;;;;;;8.94;100.00;100451.91;4998153;28;20213;-69
2023/11/06 06:12:54;;;;;;;11.27;6.47;;;;;;;8.79;100.00;100461.88;4982966;28;20194;-69
2023/11/06 06:15:20;;;;;;;11.40;6.00;;;;;;;9.02;100.00;100466.97;4997031;28;20213;-69
2023/11/06 06:17:45;;;;;;;14.80;7.87;;;;;;;8.88;100.00;100470.56;4998143;28;20315;-69
2023/11/06 06:20:12;;;;;;;12.70;7.37;;;;;;;8.82;100.00;100475.72;4994478;28;20186;-69
2023/11/06 06:22:38;;;;;;;13.93;8.03;;;;;;;8.89;100.00;100473.06;4994746;28;20185;-68
2023/11/06 06:25:05;;;;;;;10.97;7.13;;;;;;;8.90;100.00;100509.47;4998944;28;20511;-70
2023/11/06 06:27:31;;;;;;;16.33;8.27;;;;;;;8.80;100.00;100511.69;4997557;28;20440;-68
2023/11/06 06:29:57;;;;;;;14.17;9.13;;;;;;;8.93;100.00;100527.00;4978165;28;21112;-68
2023/11/06 06:32:22;;;;;;;21.00;9.07;;;;;;;8.62;100.00;100487.28;4995786;28;20212;-69
2023/11/06 06:34:48;;;;;;;13.40;7.57;;;;;;;8.97;100.00;100533.63;4997483;28;20181;-69
2023/11/06 06:37:13;;;;;;;18.30;9.40;;;;;;;8.86;100.00;100544.84;4999063;28;20181;-69
2023/11/06 06:39:38;;;;;;;14.47;9.17;;;;;;;8.96;100.00;100558.69;5000353;28;20950;-68
2023/11/06 06:42:04;;;;;;;20.10;9.40;;;;;;;8.94;100.00;100555.38;4997303;28;20212;-69
2023/11/06 06:44:30;;;;;;;14.93;9.90;;;;;;;8.81;100.00;100554.28;5011947;28;20208;-68
2023/11/06 06:46:57;;;;;;;15.17;9.10;;;;;;;8.98;100.00;100564.69;5001492;28;20460;-69
2023/11/06 06:49:23;;;;;;;21.87;9.97;;;;;;;8.98;100.00;100592.25;5000732;28;20251;-69
2023/11/06 06:51:48;;;;;;;18.40;10.57;;;;;;;8.98;100.00;100562.00;4981134;28;21042;-69
2023/11/06 06:54:14;;;;;;;13.43;9.47;;;;;;;8.55;100.00;100504.09;5002080;28;20200;-69
2023/11/06 06:56:39;;;;;;;19.73;10.67;;;;;;;8.85;100.00;100544.00;4988327;28;20177;-68
2023/11/06 06:59:05;;;;;;;14.17;9.50;;;;;;;8.74;100.00;100541.88;4981168;28;20188;-69
2023/11/06 07:01:30;;;;;;;18.17;9.40;;;;;;;9.12;100.00;100590.50;4998195;28;20204;-69
2023/11/06 07:03:55;;;;;;;15.00;10.37;;;;;;;9.13;100.00;100596.69;5001928;28;20181;-68
2023/11/06 07:06:21;;;;;;;19.17;10.77;;;;;;;9.13;100.00;100602.88;4982111;28;20584;-68
2023/11/06 07:08:46;;;;;;;22.03;9.37;;;;;;;9.25;100.00;100605.81;5000469;28;20272;-69
2023/11/06 07:11:12;;;;;;;15.70;9.90;;;;;;;9.06;100.00;100585.94;4999959;28;20224;-69
2023/11/06 07:13:37;;;;;;;19.40;9.87;;;;;;;9.15;100.00;100608.84;5001676;28;20239;-69
2023/11/06 07:16:04;;;;;;;20.10;9.90;;;;;;;9.06;100.00;100596.66;4995627;28;20192;-69
2023/11/06 07:18:29;;;;;;;15.63;9.10;;;;;;;9.11;100.00;100591.53;4998993;28;21023;-69
2023/11/06 07:20:55;;;;;;;15.77;9.10;;;;;;;9.25;100.00;100608.50;4999472;28;20448;-69
2023/11/06 07:23:20;;;;;;;16.03;8.90;;;;;;;9.20;100.00;100605.56;5003122;28;20271;-69
2023/11/06 07:25:47;;;;;;;17.00;9.27;;;;;;;9.17;100.00;100595.25;4984883;28;20205;-69
2023/11/06 07:28:13;;;;;;;19.03;9.10;;;;;;;9.09;100.00;100592.75;5003632;28;20489;-69
2023/11/06 07:30:39;;;;;;;15.47;9.07;;;;;;;9.09;100.00;100592.75;4981195;28;21153;-69
2023/11/06 07:33:05;;;;;;;17.30;7.93;;;;;;;8.64;100.00;100534.19;5000181;28;20471;-69
2023/11/06 07:35:31;;;;;;;15.10;8.87;;;;;;;9.27;100.00;100604.59;5004280;28;20957;-69
2023/11/06 07:37:56;;;;;;;11.83;7.73;;;;;;;9.02;100.00;100579.31;4987268;28;20539;-69
2023/11/06 07:40:21;;;;;;;16.77;7.03;;;;;;;8.75;100.00;100544.34;5000179;28;20230;-69
2023/11/06 07:42:47;;;;;;;15.20;7.00;;;;;;;8.85;100.00;100567.25;5003214;28;20196;-69
2023/11/06 07:45:12;;;;;;;13.80;6.40;;;;;;;9.26;100.00;100621.69;5002871;28;20288;-69
2023/11/06 07:47:39;;;;;;;10.50;5.77;;;;;;;9.35;100.00;100621.56;4986186;28;20181;-69
2023/11/06 07:50:05;;;;;;;10.63;5.67;;;;;;;9.23;100.00;100600.69;5003951;28;20188;-69
2023/11/06 07:52:30;;;;;;;10.83;5.73;;;;;;;9.07;100.00;100603.66;4999842;28;20451;-68
2023/11/06 07:54:56;;;;;;;9.43;4.90;;;;;;;9.05;100.00;100582.44;5003397;28;20570;-69
2023/11/06 07:57:21;;;;;;;9.60;4.27;;;;;;;9.33;100.00;100594.97;4985071;28;20180;-69
2023/11/06 07:59:47;;;;;;;7.33;4.83;;;;;;;9.31;100.00;100606.88;4999161;28;20855;-69
2023/11/06 08:02:17;;;;;;;14.07;4.90;;;;;;;9.25;100.00;100603.16;4996763;28;20678;-68
2023/11/06 08:04:43;;;;;;;10.50;4.23;;;;;;;9.35;100.00;100609.00;4999062;28;20647;-69
2023/11/06 08:07:10;;;;;;;7.87;3.80;;;;;;;9.01;100.00;100567.78;4998877;28;20540;-69
2023/11/06 08:09:36;;;;;;;10.50;4.13;;;;;;;9.35;100.00;100600.16;4999217;28;20192;-69
2023/11/06 08:12:03;;;;;;;8.87;4.07;;;;;;;9.31;100.00;100609.56;4985954;28;20452;-69
2023/11/06 08:14:31;;;;;;;9.93;3.83;;;;;;;9.22;100.00;100607.03;5001214;28;20879;-69
2023/11/06 08:16:57;;;;;;;11.17;3.97;;;;;;;9.34;100.00;100622.56;5003367;28;20968;-69
2023/11/06 08:19:22;;;;;;;8.73;3.60;;;;;;;9.35;100.00;100637.63;5000844;28;20586;-69
2023/11/06 08:21:48;;;;;;;8.23;3.17;;;;;;;9.43;100.00;100640.13;4988442;28;20266;-70
2023/11/06 08:24:13;;;;;;;7.13;3.00;;;;;;;9.28;100.00;100632.19;5000642;28;20192;-70
2023/11/06 08:26:38;;;;;;;7.53;2.90;;;;;;;9.29;100.00;100644.56;5001775;28;20266;-69
2023/11/06 08:29:05;;;;;;;7.03;2.50;;;;;;;9.34;100.00;100641.28;5000227;28;20189;-69
2023/11/06 08:31:31;;;;;;;6.47;2.87;;;;;;;9.29;100.00;100639.22;4999878;28;20244;-69
2023/11/06 08:33:56;;;;;;;5.13;2.00;;;;;;;9.37;100.00;100648.94;4997785;28;20514;-68
2023/11/06 08:36:22;;;;;;;5.13;1.73;;;;;;;9.27;100.00;100646.59;5005040;28;20808;-68
2023/11/06 08:38:47;;;;;;;7.60;1.93;;;;;;;9.40;100.00;100643.19;4985046;28;20216;-68
2023/11/06 08:41:12;;;;;;;2.83;1.20;;;;;;;9.28;100.00;100627.66;5004670;28;20677;-69
2023/11/06 08:43:41;;;;;;;4.03;1.40;;;;;;;9.43;100.00;100621.38;4998191;28;20193;-69
2023/11/06 08:46:06;;;;;;;8.67;1.37;;;;;;;9.32;100.00;100620.09;5006542;28;20576;-69
2023/11/06 08:48:32;;;;;;;3.60;1.23;;;;;;;9.28;100.00;100606.25;5004021;28;20428;-69
2023/11/06 08:50:59;;;;;;;4.53;1.20;;;;;;;9.28;100.00;100603.56;4998875;28;20740;-69
2023/11/06 08:53:24;;;;;;;4.40;1.20;;;;;;;9.44;100.00;100609.66;5002849;28;20199;-68
2023/11/06 08:55:50;;;;;;;4.50;1.20;;;;;;;9.39;100.00;100601.38;4985271;28;20432;-68
2023/11/06 08:58:16;;;;;;;5.00;1.60;;;;;;;9.46;100.00;100589.72;5003295;28;20203;-69
2023/11/06 09:00:47;;;;;;;5.03;1.50;;;;;;;9.22;100.00;100596.34;4986722;28;20728;-69
2023/11/06 09:03:13;;;;;;;5.10;1.67;;;;;;;9.09;100.00;100566.00;5000381;28;20439;-69
2023/11/06 09:05:40;;;;;;;4.87;1.70;;;;;;;9.07;100.00;100558.16;4996979;28;20547;-69
2023/11/06 09:08:05;;;;;;;4.40;1.50;;;;;;;9.42;100.00;100612.53;5002132;28;20531;-69
2023/11/06 09:10:31;;;;;;;3.23;1.33;;;;;;;9.37;100.00;100622.16;5001301;28;20872;-69
2023/11/06 09:12:59;;;;;;;5.77;1.40;;;;;;;9.24;100.00;100604.19;4994374;28;20621;-69
2023/11/06 09:15:24;;;;;;;5.37;1.43;;;;;;;9.26;100.00;100624.38;5003591;28;20239;-69
2023/11/06 09:17:50;;;;;;;5.37;1.20;;;;;;;9.05;100.00;100577.09;4999706;28;20468;-69
2023/11/06 09:20:15;;;;;;;5.83;1.10;;;;;;;9.00;100.00;100632.22;5003503;28;20188;-69
2023/11/06 09:22:41;;;;;;;5.73;1.10;;;;;;;8.69;100.00;100587.91;4979668;28;20236;-69
2023/11/06 09:25:08;;;;;;;2.63;0.90;;;;;;;8.79;100.00;100612.50;5000895;28;20197;-68
2023/11/06 09:27:34;;;;;;;5.73;1.20;;;;;;;8.88;100.00;100625.72;4984607;28;20431;-69
2023/11/06 09:30:00;;;;;;;5.30;1.20;;;;;;;8.53;100.00;100597.03;5000616;28;20437;-69
2023/11/06 09:32:26;;;;;;;4.47;1.37;;;;;;;8.66;100.00;100649.78;5000185;28;20440;-69
2023/11/06 09:34:51;;;;;;;8.37;1.67;;;;;;;8.73;100.00;100656.03;4985434;28;20443;-70
2023/11/06 09:37:17;;;;;;;6.50;1.77;;;;;;;8.81;100.00;100650.56;5005133;28;20216;-69
2023/11/06 09:39:43;;;;;;;5.23;1.83;;;;;;;8.74;100.00;100660.38;5000191;28;20180;-68
2023/11/06 09:42:10;;;;;;;5.13;2.47;;;;;;;8.95;100.00;100658.72;5001883;28;20205;-69
2023/11/06 09:44:36;;;;;;;11.03;3.63;;;;;;;8.79;100.00;100628.53;5000657;28;20994;-69
2023/11/06 09:47:07;;;;;;;5.93;3.07;;;;;;;8.75;100.00;100645.97;4998677;28;20468;-68
2023/11/06 09:49:50;;;;;;;10.90;3.60;;;;;;;8.76;100.00;100601.34;5003452;28;20452;-69
2023/11/06 09:52:18;;;;;;;8.37;3.43;;;;;;;8.75;100.00;100610.38;5009838;28;23846;-69
2023/11/06 09:54:51;;;;;;;11.47;4.03;;;;;;;8.79;100.00;100633.03;5011948;28;20443;-69
2023/11/06 09:57:17;;;;;;;14.10;4.13;;;;;;;8.88;100.00;100641.75;4997802;28;20439;-69
2023/11/06 09:59:48;;;;;;;7.80;4.00;;;;;;;8.83;100.00;100623.63;4989757;28;20432;-69
2023/11/06 10:02:14;;;;;;;15.50;5.80;;;;;;;8.82;100.00;100633.50;5002473;28;20451;-69
2023/11/06 10:04:39;;;;;;;9.33;5.37;;;;;;;8.60;100.00;100621.97;5003024;28;20455;-69
2023/11/06 10:07:05;;;;;;;10.17;4.80;;;;;;;8.58;100.00;100623.19;4986002;28;20267;-69
2023/11/06 10:09:31;;;;;;;15.57;5.70;;;;;;;8.78;100.00;100671.50;4997094;28;20281;-68
2023/11/06 10:12:14;;;;;;;14.60;5.67;;;;;;;8.70;100.00;100674.31;4980930;28;21047;-69
2023/11/06 10:14:40;;;;;;;17.43;5.27;;;;;;;8.76;100.00;100700.28;4998926;28;20481;-69
2023/11/06 10:17:06;;;;;;;10.37;4.80;;;;;;;8.80;100.00;100707.75;5000940;28;21255;-68
2023/11/06 10:19:34;;;;;;;10.20;4.47;;;;;;;8.77;100.00;100721.50;4983395;28;20196;-68
2023/11/06 10:22:14;;;;;;;10.27;4.17;;;;;;;9.00;100.00;100760.63;4999586;28;20466;-69
2023/11/06 10:24:51;;;;;;;11.10;4.00;;;;;;;9.11;100.00;100778.81;4994877;28;20547;-69
2023/11/06 10:27:43;;;;;;;13.40;4.90;;;;;;;8.95;100.00;100795.13;4983351;28;20811;-69
2023/11/06 10:30:10;;;;;;;20.17;4.23;;;;;;;8.83;100.00;100773.41;4996418;28;21034;-69
2023/11/06 10:32:36;;;;;;;9.30;4.10;;;;;;;9.10;100.00;100817.31;5004044;28;20527;-69
2023/11/06 10:35:10;;;;;;;14.77;4.10;;;;;;;9.06;100.00;100818.72;5002220;28;20520;-69
2023/11/06 10:37:41;;;;;;;13.17;4.13;;;;;;;8.81;100.00;100808.34;4990561;28;20181;-69
2023/11/06 10:40:12;;;;;;;9.80;4.10;;;;;;;8.98;100.00;100830.34;4994067;28;20812;-69
2023/11/06 10:42:40;;;;;;;12.10;4.33;;;;;;;9.09;100.00;100836.25;5001248;28;20424;-68
2023/11/06 10:45:10;;;;;;;10.67;4.13;;;;;;;9.19;100.00;100834.91;4999178;28;20505;-70
2023/11/06 10:47:40;;;;;;;11.00;3.63;;;;;;;9.03;100.00;100822.59;4988412;28;21056;-70
2023/11/06 10:50:12;;;;;;;10.40;3.30;;;;;;;9.22;100.00;100849.75;4989880;28;20451;-70
2023/11/06 10:52:41;;;;;;;6.60;3.50;;;;;;;9.24;100.00;100853.91;4987962;28;20440;-69
2023/11/06 10:55:08;;;;;;;9.07;3.30;;;;;;;9.19;100.00;100840.25;4987531;28;20583;-69
2023/11/06 10:57:34;;;;;;;10.57;3.40;;;;;;;9.28;100.00;100835.59;4997081;28;20471;-70
2023/11/06 11:00:11;;;;;;;8.73;3.10;;;;;;;9.32;100.00;100846.78;4989217;28;20425;-69
2023/11/06 11:02:44;;;;;;;11.30;3.20;;;;;;;9.38;100.00;100843.34;5003093;28;20435;-69
2023/11/06 11:05:14;;;;;;;9.70;3.20;;;;;;;9.41;100.00;100838.44;5001457;28;20514;-69
2023/11/06 11:07:41;;;;;;;11.67;3.03;;;;;;;9.14;100.00;100805.22;5002573;28;20436;-69
2023/11/06 11:10:13;;;;;;;12.57;2.83;;;;;;;9.45;100.00;100838.88;5001479;28;20462;-69
2023/11/06 11:12:40;;;;;;;9.90;2.60;;;;;;;9.47;100.00;100828.81;4997086;28;20524;-70
2023/11/06 11:15:07;;;;;;;8.93;2.50;;;;;;;9.23;100.00;100777.31;4987769;28;20522;-70
2023/11/06 11:17:33;;;;;;;12.40;2.40;;;;;;;9.42;100.00;100810.63;5001041;28;20937;-70